16 de agosto de 2022

Hora Código Clima Temp. Visibilidade Tecto Vento METAR/SPECI
11:30
V
30 °C 10 km+ - 130° 130° 20 - 30 kt METAR LFCK 160930Z AUTO 13020G30KT CAVOK 30/13 Q1007 NOSIG
11:00
V
30 °C 10 km+ - 130° 130° 18 kt METAR LFCK 160900Z AUTO 13018KT 090V150 CAVOK 30/13 Q1007 BECMG 12016G26KT
10:30
V
29 °C 10 km+ - 130° 130° 17 kt METAR LFCK 160830Z AUTO 13017KT CAVOK 29/12 Q1007 BECMG 12016G30KT
10:00
V
28 °C 10 km+ - 130° 130° 16 kt METAR LFCK 160800Z AUTO 13016KT CAVOK 28/12 Q1007 BECMG 12016G30KT
09:30
V
27 °C 10 km+ - 130° 130° 18 kt METAR LFCK 160730Z AUTO 13018KT CAVOK 27/12 Q1007 BECMG 12016G30KT
09:00
V
26 °C 10 km+ - 130° 130° 13 kt METAR LFCK 160700Z AUTO 13013KT 100V160 CAVOK 26/12 Q1008 BECMG 12016G30KT
08:30
V
23 °C 10 km+ - 100° 100° 4 kt METAR LFCK 160630Z AUTO 10004KT 040V140 CAVOK 23/12 Q1008 BECMG 12016G30KT
08:00
V
21 °C 10 km+ - 100° 100° 7 kt METAR LFCK 160600Z AUTO 10007KT CAVOK 21/12 Q1008 BECMG 12016G30KT
07:30
V
19 °C 10 km+ - 120° 120° 10 kt METAR LFCK 160530Z AUTO 12010KT CAVOK 19/12 Q1008 BECMG 12016G30KT
07:00
V
18 °C 10 km+ - 100° 100° 6 kt METAR LFCK 160500Z AUTO 10006KT CAVOK 18/12 Q1008
06:30
V
18 °C 10 km+ - 090° 090° 4 kt METAR LFCK 160430Z AUTO 09004KT CAVOK 18/12 Q1009
06:00
V
17 °C 10 km+ - 100° 100° 4 kt METAR LFCK 160400Z AUTO 10004KT CAVOK 17/12 Q1009
05:30
V
17 °C 10 km+ - 110° 110° 5 kt METAR LFCK 160330Z AUTO 11005KT CAVOK 17/12 Q1009
05:00
V
17 °C 10 km+ - 090° 090° 5 kt METAR LFCK 160300Z AUTO 09005KT CAVOK 17/12 Q1009
04:30
V
18 °C 10 km+ - 120° 120° 5 kt METAR LFCK 160230Z AUTO 12005KT CAVOK 18/12 Q1009
04:00
V
18 °C 10 km+ - 080° 080° 5 kt METAR LFCK 160200Z AUTO 08005KT CAVOK 18/12 Q1009
03:30
V
19 °C 10 km+ - 080° 080° 3 kt METAR LFCK 160130Z AUTO 08003KT CAVOK 19/12 Q1010
03:00
V
18 °C 10 km+ - 100° 100° 4 kt METAR LFCK 160100Z AUTO 10004KT CAVOK 18/12 Q1010
02:30
V
19 °C 10 km+ - 080° 080° 4 kt METAR LFCK 160030Z AUTO 08004KT CAVOK 19/12 Q1010
02:00
V
20 °C 10 km+ - 120° 120° 6 kt METAR LFCK 160000Z AUTO 12006KT CAVOK 20/12 Q1010
01:30
V
20 °C 10 km+ - 090° 090° 4 kt METAR LFCK 152330Z AUTO 09004KT CAVOK 20/12 Q1010
01:00
V
21 °C 10 km+ - 130° 130° 5 kt METAR LFCK 152300Z AUTO 13005KT 090V160 CAVOK 21/13 Q1011
00:30
V
20 °C 10 km+ - 130° 130° 5 kt METAR LFCK 152230Z AUTO 13005KT CAVOK 20/12 Q1011
00:00
V
20 °C 10 km+ - 130° 130° 6 kt METAR LFCK 152200Z AUTO 13006KT CAVOK 20/12 Q1011

15 de agosto de 2022

Hora Código Clima Temp. Visibilidade Tecto Vento METAR/SPECI
23:30
V
21 °C 10 km+ - 140° 140° 7 kt METAR LFCK 152130Z AUTO 14007KT CAVOK 21/12 Q1011
23:00
V
22 °C 10 km+ - 140° 140° 4 kt METAR LFCK 152100Z AUTO 14004KT CAVOK 22/12 Q1011 NOSIG
22:30
V
23 °C 10 km+ - Var Var 1 kt METAR LFCK 152030Z AUTO VRB01KT CAVOK 23/12 Q1011 NOSIG
22:00
V
23 °C 10 km+ - Var Var 1 kt METAR LFCK 152000Z AUTO VRB01KT CAVOK 23/12 Q1010 NOSIG
21:30
V
25 °C 10 km+ - 330° 330° 5 kt METAR LFCK 151930Z AUTO 33005KT CAVOK 25/12 Q1010 NOSIG
21:00
V
26 °C 10 km+ - 320° 320° 7 kt METAR LFCK 151900Z AUTO 32007KT CAVOK 26/12 Q1010 NOSIG
20:30
V
27 °C 10 km+ - 330° 330° 8 kt METAR LFCK 151830Z AUTO 33008KT CAVOK 27/12 Q1009 NOSIG
20:00
V
28 °C 10 km+ - 310° 310° 8 kt METAR LFCK 151800Z AUTO 31008KT CAVOK 28/12 Q1009 NOSIG
19:30
V
28 °C 10 km+ - 330° 330° 6 kt METAR LFCK 151730Z AUTO 33006KT 290V360 CAVOK 28/12 Q1009 NOSIG
19:00
V
28 °C 10 km+ - 320° 320° 8 kt METAR LFCK 151700Z AUTO 32008KT 290V350 CAVOK 28/12 Q1009 NOSIG
18:30
V
29 °C 10 km+ - 300° 300° 7 kt METAR LFCK 151630Z AUTO 30007KT 250V350 CAVOK 29/12 Q1010 NOSIG
18:00
V
28 °C 10 km+ - 310° 310° 7 kt METAR LFCK 151600Z AUTO 31007KT 270V350 CAVOK 28/12 Q1010 NOSIG
17:30
V
29 °C 10 km+ - 320° 320° 8 kt METAR LFCK 151530Z AUTO 32008KT 270V360 CAVOK 29/13 Q1010 NOSIG
17:00
V
28 °C 10 km+ - 330° 330° 7 kt METAR LFCK 151500Z AUTO 33007KT 280V070 CAVOK 28/13 Q1010 NOSIG
16:30
V
28 °C 10 km+ - 310° 310° 10 kt METAR LFCK 151430Z AUTO 31010KT 270V340 CAVOK 28/13 Q1010 NOSIG
16:00
V
28 °C 10 km+ - 310° 310° 10 kt METAR LFCK 151400Z AUTO 31010KT 280V350 CAVOK 28/13 Q1010 NOSIG
15:30
V
28 °C 10 km+ - 310° 310° 9 kt METAR LFCK 151330Z AUTO 31009KT 250V010 CAVOK 28/14 Q1010 NOSIG
15:00
V
28 °C 10 km+ - 280° 280° 10 kt METAR LFCK 151300Z AUTO 28010KT 250V310 CAVOK 28/13 Q1011 NOSIG
14:30
V
27 °C 10 km+ - 330° 330° 10 kt METAR LFCK 151230Z AUTO 33010KT 280V020 9999 FEW048 27/13 Q1011 NOSIG
14:00
V
26 °C 10 km+ - 280° 280° 10 kt METAR LFCK 151200Z AUTO 28010KT 250V320 9999 SCT046 26/13 Q1011 NOSIG
13:30
V
26 °C 10 km+ 4.400 ft 300° 300° 8 kt METAR LFCK 151130Z AUTO 30008KT 270V330 9999 BKN044 26/14 Q1011 NOSIG
13:00
V
25 °C 10 km+ 4.300 ft 330° 330° 9 kt METAR LFCK 151100Z AUTO 33009KT 220V010 9999 BKN043 25/14 Q1012 NOSIG
12:30
V
24 °C 10 km+ 4.700 ft 310° 310° 10 kt METAR LFCK 151030Z AUTO 31010KT 270V350 9999 FEW039 BKN047 24/14 Q1012 NOSIG
12:00
V
24 °C 10 km+ 4.700 ft 310° 310° 8 kt METAR LFCK 151000Z AUTO 31008KT 260V360 9999 FEW037 BKN047 24/14 Q1012 NOSIG
11:30
V
23 °C 10 km+ 4.700 ft 320° 320° 8 kt METAR LFCK 150930Z AUTO 32008KT 270V360 9999 OVC047 23/14 Q1012 NOSIG
11:00
V
23 °C 10 km+ 4.700 ft 310° 310° 7 kt METAR LFCK 150900Z AUTO 31007KT 260V020 9999 OVC047 23/14 Q1012 NOSIG
10:30
V
22 °C 10 km+ 4.700 ft 330° 330° 6 kt METAR LFCK 150830Z AUTO 33006KT 280V010 9999 OVC047 22/14 Q1012 NOSIG
10:00
V
21 °C 10 km+ 4.700 ft 330° 330° 5 kt METAR LFCK 150800Z AUTO 33005KT 270V010 9999 FEW025 OVC047 21/14 Q1012 NOSIG
09:30
V
21 °C 10 km+ 4.700 ft 290° 290° 5 kt METAR LFCK 150730Z AUTO 29005KT 260V320 9999 FEW022 SCT038 OVC047 21/15 Q1012 NOSIG
09:00
V
20 °C 10 km+ 3.500 ft 280° 280° 5 kt METAR LFCK 150700Z AUTO 28005KT 9999 FEW022 BKN035 OVC044 20/15 Q1012 TEMPO BKN013
08:30
V
20 °C 10 km+ 4.300 ft 280° 280° 5 kt METAR LFCK 150630Z AUTO 28005KT 9999 FEW033 OVC043 20/15 Q1012 TEMPO BKN013
08:00
V
20 °C 10 km+ 3.200 ft 280° 280° 3 kt METAR LFCK 150600Z AUTO 28003KT 9999 BKN032 OVC043 20/15 Q1012 TEMPO BKN013
07:30
M
20 °C 10 km+ 2.900 ft 290° 290° 5 kt METAR LFCK 150530Z AUTO 29005KT 9999 BKN029 OVC037 20/15 Q1012 TEMPO BKN013
07:00
V
20 °C 10 km+ 3.200 ft 280° 280° 6 kt METAR LFCK 150500Z AUTO 28006KT 230V300 9999 BKN032 OVC040 20/16 Q1012
06:30
V
20 °C 10 km+ 3.300 ft 290° 290° 5 kt METAR LFCK 150430Z AUTO 29005KT 9999 BKN033 OVC042 20/16 Q1012
06:00
V
20 °C 10 km+ 3.500 ft 290° 290° 3 kt METAR LFCK 150400Z AUTO 29003KT 9999 BKN035 OVC041 20/16 Q1011
05:30
V
19 °C 10 km+ 3.700 ft Var Var 2 kt METAR LFCK 150330Z AUTO VRB02KT 9999 BKN037 19/16 Q1011
05:00
V
20 °C 10 km+ 3.600 ft 280° 280° 3 kt METAR LFCK 150300Z AUTO 28003KT 9999 OVC036 20/16 Q1011
04:30
V
19 °C 10 km+ 13.000 ft Var Var 2 kt METAR LFCK 150230Z AUTO VRB02KT 9999 SCT039 BKN130 19/15 Q1011
04:00
V
20 °C 10 km+ - 270° 270° 3 kt METAR LFCK 150200Z AUTO 27003KT CAVOK 20/16 Q1011
03:30
V
21 °C 10 km+ - 250° 250° 5 kt METAR LFCK 150130Z AUTO 25005KT 9999 SCT044 21/16 Q1011
03:00
V
22 °C 10 km+ 4.200 ft 260° 260° 4 kt METAR LFCK 150100Z AUTO 26004KT 9999 OVC042 22/16 Q1012
02:30
V
21 °C 10 km+ 8.600 ft 260° 260° 5 kt METAR LFCK 150030Z AUTO 26005KT 9999 SCT042 BKN086 21/16 Q1012
02:00
V
22 °C 10 km+ 8.400 ft Var Var 1 kt METAR LFCK 150000Z AUTO VRB01KT 9999 FEW046 BKN084 22/16 Q1012
01:30
V
23 °C 10 km+ 4.700 ft 290° 290° 3 kt METAR LFCK 142330Z AUTO 29003KT 9999 BKN047 BKN058 BKN068 23/16 Q1012
01:00
V
24 °C 10 km+ - 290° 290° 3 kt METAR LFCK 142300Z AUTO 29003KT CAVOK 24/16 Q1012
00:30
V
24 °C 10 km+ 4.900 ft 330° 330° 3 kt METAR LFCK 142230Z AUTO 33003KT 280V020 9999 -RA BKN049 OVC076 24/16 Q1012
00:00
V
24 °C 10 km+ 4.900 ft 310° 310° 5 kt METAR LFCK 142200Z AUTO 31005KT 9999 OVC049 24/15 Q1012

14 de agosto de 2022

Hora Código Clima Temp. Visibilidade Tecto Vento METAR/SPECI
23:30
V
25 °C 10 km+ 4.900 ft 320° 320° 7 kt METAR LFCK 142130Z AUTO 32007KT 9999 OVC049 25/15 Q1012
23:00
V
25 °C 10 km+ - 300° 300° 6 kt METAR LFCK 142100Z AUTO 30006KT CAVOK 25/16 Q1012 TEMPO FEW040CB SCT050TCU BKN060
22:30
V
25 °C 10 km+ - 300° 300° 7 kt METAR LFCK 142030Z AUTO 30007KT CAVOK 25/16 Q1012 TEMPO FEW040CB SCT050TCU BKN060
22:00
V
26 °C 10 km+ - 310° 310° 8 kt METAR LFCK 142000Z AUTO 31008KT CAVOK 26/16 Q1011 TEMPO FEW040CB SCT050TCU BKN060
21:30
V
26 °C 10 km+ - 310° 310° 11 kt METAR LFCK 141930Z AUTO 31011KT CAVOK 26/16 Q1011 TEMPO FEW040CB SCT050TCU BKN060
21:00
V
26 °C 10 km+ - 300° 300° 10 kt METAR LFCK 141900Z AUTO 30010KT CAVOK 26/16 Q1010 TEMPO FEW040CB SCT050TCU BKN060
20:30
V
27 °C 10 km+ - 300° 300° 12 kt METAR LFCK 141830Z AUTO 30012KT CAVOK 27/15 Q1010 TEMPO FEW040CB SCT050TCU BKN060
20:00
V
28 °C 10 km+ - 300° 300° 10 kt METAR LFCK 141800Z AUTO 30010KT 270V340 CAVOK 28/15 Q1010 NOSIG
19:30
V
29 °C 10 km+ - 300° 300° 10 kt METAR LFCK 141730Z AUTO 30010KT CAVOK 29/15 Q1010 TEMPO FEW050CB SCT060TCU
19:00
V
29 °C 10 km+ - 320° 320° 8 kt METAR LFCK 141700Z AUTO 32008KT CAVOK 29/14 Q1010 TEMPO FEW050CB SCT060TCU
18:30
V
29 °C 10 km+ - 320° 320° 9 kt METAR LFCK 141630Z AUTO 32009KT 290V010 CAVOK 29/14 Q1010 TEMPO FEW050CB SCT060TCU
18:00
V
28 °C 10 km+ - 350° 350° 11 kt METAR LFCK 141600Z AUTO 35011KT CAVOK 28/15 Q1010 TEMPO FEW050CB SCT060TCU
17:30
V
28 °C 10 km+ - 340° 340° 12 kt METAR LFCK 141530Z AUTO 34012KT CAVOK 28/15 Q1010 TEMPO FEW050CB SCT060TCU
17:00
V
29 °C 10 km+ - 320° 320° 11 kt METAR LFCK 141500Z AUTO 32011KT 290V360 CAVOK 29/15 Q1010 TEMPO FEW050CB SCT060TCU
16:30
V
28 °C 10 km+ - 300° 300° 11 kt METAR LFCK 141430Z AUTO 30011KT 270V340 CAVOK 28/16 Q1010 TEMPO 30015G25KT FEW050CB SCT060TCU
16:00
V
29 °C 10 km+ - 330° 330° 14 kt METAR LFCK 141400Z AUTO 33014KT 300V010 CAVOK 29/16 Q1011 TEMPO 30015G25KT FEW050CB SCT060TCU
15:30
V
29 °C 10 km+ - 360° 360° 15 kt METAR LFCK 141330Z AUTO 36015KT 320V020 CAVOK 29/16 Q1011 TEMPO 30015G25KT FEW050CB SCT060TCU
15:00
V
29 °C 10 km+ - 280° 280° 14 kt METAR LFCK 141300Z AUTO 28014KT 250V310 CAVOK 29/15 Q1011 TEMPO 30015G25KT FEW050CB SCT060TCU
14:30
V
28 °C 10 km+ - 300° 300° 10 kt METAR LFCK 141230Z AUTO 30010KT 260V340 9999 FEW040 SCT056 28/16 Q1011 TEMPO 30015G25KT FEW050CB SCT060TCU
14:00
V
27 °C 10 km+ 6.800 ft 290° 290° 8 kt METAR LFCK 141200Z AUTO 29008KT 240V340 9999 FEW039 SCT056 BKN068 27/18 Q1011 TEMPO 30015G25KT FEW050CB SCT060TCU
13:30
V
26 °C 10 km+ 5.000 ft 320° 320° 5 kt METAR LFCK 141130Z AUTO 32005KT 260V360 9999 FEW033 SCT039 BKN050 26/18 Q1012 TEMPO 30015G25KT FEW050CB SCT060TCU
13:00
V
25 °C 10 km+ 3.200 ft 300° 300° 7 kt METAR LFCK 141100Z AUTO 30007KT 260V340 9999 BKN032 BKN039 OVC054 25/18 Q1012 NOSIG
12:30
M
25 °C 10 km+ 2.700 ft 310° 310° 5 kt METAR LFCK 141030Z AUTO 31005KT 270V360 9999 BKN027 BKN032 OVC042 25/18 Q1012 NOSIG
12:00
M
24 °C 10 km+ 2.400 ft 280° 280° 3 kt METAR LFCK 141000Z AUTO 28003KT 220V320 9999 BKN024 OVC030 24/18 Q1012 NOSIG
Dados mais antigos

Nós e terceiros acompanhamos seu comportamento na internet em nosso site com cookies. Se você continuar, nós assumimos que você concorda com nossa política de cookies. Saiba mais